A- A+ FrançaisEnglishEspañol中国

Services sur Internet Soldes sur Internet Des idées de cadeaux Météo Météo aéro

La météo à : Autours de vous Tarbes-Lourdes-PyrénéesBiarritz-Bayonne-Anglet Nice-Cote-D'azurHyeres-Le-Palyvestre

manche à air

La météo aéronautique pour les pilotes, la préparation du vol avec les METAR (METeorological Aerodrome Report, message d'observation des conditions météorologiques pour l'aviation) et Les TAF (Terminal Aerodrome Forecast : message de prévision à court terme des conditions météorologiques pour l'aviation). Et les autres ressources comme les VAC (Visual Approch Chart) et les NOTAM (Notice To Airman) pour préprer les vols.

Aéroport Hammaerfest (Norvège) / OACI ENHF/ IATA HFT

L'altitude de l'aéroport Hammaerfest est de 81 m = 266 ft. Il est situé à proximité de Hammerfest (Norvège). La météo générale à 5 jours est disponible pour Hammerfest situé à 1.9 km.

METAR de l'aéroport Hammaerfest - ENHF

ENHF 021850Z VRB07G19KT 1000 SHSN VV009 M01/M02 Q0992 RMK WIND 1254FT 34020KT

Décodage du METAR de l'aéroport Hammaerfest (NO)

METAR émis par ENHF le lundi 2 décembre 2019 à 18:50 heure TU. Attention ce METAR est obsolète car il a été émis il y a 18 heure et 49 minutes.

La visibilité est de 1 km = 0.6 sm.

La température est de -1°C = 30 °F et le point rosée est de -2°C = 28 °F . Ce qui correspond à 93% d'humidité relative.

Le QNH est de 992 hPa = 29.29 inHg

Vent de 7 kt = 13 km/h avec des rafales à 19 kt = 35 km/h, orienté à °.

Nuages : VV900 ft = 270 mètres.

SHSN

RMK WIND 1254FT 34020KT

TAF de l'aéroport Hammaerfest - ENHF

ENHF 021700Z 0218/0303 01015KT 9999 FEW012TCU BKN020 PROB40 TEMPO 0218/0224 32018G28KT DRSN TEMPO 0218/0302 03015G30KT TEMPO 0218/0302 1000 SHSNGS BLSN BKN006 FEW012CB PROB40 TEMPO 0218/0302 VRB08G25KT

ENHF 021700Z 0218/0303 01015KT 9999 quelques nuages à 012TCU couverture nuageuse fragmentée à 020 probabilité de 40% d'avoir temporairement 0218/0224 32018G28KT DRSN temporairement 0218/0302 03015G30KT temporairement 0218/0302 1000 SHSNGS BLSN couverture nuageuse fragmentée à 006 quelques nuages à 012CB probabilité de 40% d'avoir temporairement 0218/0302 VRB08G25KT

Aéroport à proximité de Hammaerfest

Météo générale à 5 jours à Hammerfest (1.9 km)Aéroport Hasvik (60 km)Aéroport Alta (79 km)Aéroport Banak (84 km)Aéroport Honningsvag Valan (92 km)Aéroport Sorkjosen (142 km)Aéroport Mehamn (157 km)

Vue aérienne de l'aéroport Hammaerfest

NOTAM de l'aéroport Hammaerfest

Les NOTAM sont fournis sans aucune garantie de leur actualité. Le pilote est le seul responsable de la vérification de sa validité avant de l'utiliser opérationnellement pour préparer un vol ou l'utiliser lors de sa navigation.

Pas de NOTAM

Sources des données